Austin, Missouri
Current Conditions -  °F | °C
As of 9:53 AM on Wednesday 28 Jan 2015 (Local Time) from KOJC Reporting Station
Clear Clear  
Wind Chill: 55°   Ceiling: Unl
Heat Index: 55°   Visibility: 10mi
Dew Point: 37°   Wind: 12mph
Humidity: 51%   Direction: 180°S
Pressure: 29.92"   Gusts: 22mph
Location:  38.5148°N, 94.3768°W
Report Text: KOJC 281553Z 18010G19KT 10SM CLR 13/03 A2992 RMK AO2 SLP133 T01280028
Loading
Personal Weather Stations






























Interactive Weather Map New forecast layout! Learn more

10-Day Weather Forecast

Advertisements
Track Severe Weather on mobile